createdAt,value
2022-11-06T00:00:50.160Z,1013.08
2022-11-06T00:01:50.184Z,1013.13
2022-11-06T00:02:50.213Z,1013.20
2022-11-06T00:03:50.156Z,1013.16
2022-11-06T00:04:50.121Z,1013.20
2022-11-06T00:05:50.108Z,1013.18
2022-11-06T00:06:50.111Z,1013.21
2022-11-06T00:07:50.071Z,1013.21
2022-11-06T00:08:50.103Z,1013.18
2022-11-06T00:09:50.037Z,1013.17
2022-11-06T00:10:50.034Z,1013.16
2022-11-06T00:11:50.037Z,1013.10
2022-11-06T00:12:50.025Z,1013.15
2022-11-06T00:13:50.028Z,1013.17
2022-11-06T00:14:49.971Z,1013.17
2022-11-06T00:15:49.964Z,1013.20
2022-11-06T00:16:49.937Z,1013.20
2022-11-06T00:17:49.967Z,1013.19
2022-11-06T00:18:49.965Z,1013.18
2022-11-06T00:19:49.923Z,1013.18
2022-11-06T00:20:49.937Z,1013.13
2022-11-06T00:21:49.929Z,1013.19
2022-11-06T00:22:49.889Z,1013.22
2022-11-06T00:23:49.935Z,1013.18
2022-11-06T00:24:49.866Z,1013.13
2022-11-06T00:25:49.873Z,1013.18
2022-11-06T00:26:54.195Z,1013.19
2022-11-06T00:27:49.846Z,1013.16
2022-11-06T00:28:49.870Z,1013.14
2022-11-06T00:29:49.856Z,1013.13
2022-11-06T00:30:49.812Z,1013.09
2022-11-06T00:31:49.795Z,1013.10
2022-11-06T00:32:49.764Z,1013.08
2022-11-06T00:33:49.819Z,1013.12
2022-11-06T00:34:49.769Z,1013.08
2022-11-06T00:35:49.746Z,1013.13
2022-11-06T00:36:49.747Z,1013.08
2022-11-06T00:37:49.735Z,1013.11
2022-11-06T00:38:49.755Z,1013.11
2022-11-06T00:39:49.704Z,1013.12
2022-11-06T00:40:49.711Z,1013.14
2022-11-06T00:41:49.689Z,1013.08
2022-11-06T00:42:49.676Z,1013.07
2022-11-06T00:43:49.663Z,1013.07
2022-11-06T00:44:49.692Z,1013.09
2022-11-06T00:45:49.650Z,1013.02
2022-11-06T00:46:49.630Z,1013.05
2022-11-06T00:47:49.616Z,1013.03
2022-11-06T00:48:49.601Z,1013.03
2022-11-06T00:49:49.637Z,1013.01
2022-11-06T00:50:49.593Z,1013.01
2022-11-06T00:51:49.559Z,1013.01
2022-11-06T00:52:49.549Z,1013.00
2022-11-06T00:53:49.539Z,1013.03
2022-11-06T00:54:49.541Z,1013.01
2022-11-06T00:55:49.540Z,1012.99
2022-11-06T00:56:49.515Z,1013.05
2022-11-06T00:57:49.513Z,1013.02
2022-11-06T00:58:49.485Z,1013.03
2022-11-06T00:59:49.627Z,1013.04
2022-11-06T01:00:49.464Z,1013.07
2022-11-06T01:01:49.532Z,1013.03
2022-11-06T01:02:49.551Z,1013.00
2022-11-06T01:03:49.429Z,1013.02
2022-11-06T01:04:49.438Z,1013.01
2022-11-06T01:05:49.406Z,1012.97
2022-11-06T01:06:49.410Z,1012.96
2022-11-06T01:07:49.389Z,1012.99
2022-11-06T01:08:49.390Z,1012.97
2022-11-06T01:09:49.409Z,1012.97
2022-11-06T01:10:49.371Z,1012.92
2022-11-06T01:12:50.322Z,1012.92
2022-11-06T01:13:49.331Z,1012.88
2022-11-06T01:14:49.451Z,1012.88
2022-11-06T01:15:49.335Z,1012.88
2022-11-06T01:16:49.289Z,1012.91
2022-11-06T01:17:49.289Z,1012.91
2022-11-06T01:18:49.282Z,1012.88
2022-11-06T01:19:49.290Z,1012.91
2022-11-06T01:20:49.245Z,1012.91
2022-11-06T01:21:49.231Z,1012.95
2022-11-06T01:22:49.308Z,1012.97
2022-11-06T01:23:49.213Z,1012.93
2022-11-06T01:24:49.314Z,1012.93
2022-11-06T01:25:49.195Z,1012.92
2022-11-06T01:27:12.092Z,1012.91
2022-11-06T01:27:50.171Z,1012.90
2022-11-06T01:28:49.167Z,1012.93
2022-11-06T01:29:49.182Z,1012.92
2022-11-06T01:30:49.192Z,1012.89
2022-11-06T01:31:49.112Z,1012.91
2022-11-06T01:32:49.097Z,1012.99
2022-11-06T01:33:49.113Z,1012.93
2022-11-06T01:34:49.124Z,1012.89
2022-11-06T01:35:49.086Z,1012.90
2022-11-06T01:36:49.065Z,1012.85
2022-11-06T01:37:49.073Z,1012.88
2022-11-06T01:38:49.045Z,1012.85
2022-11-06T01:39:49.079Z,1012.82
2022-11-06T01:40:49.025Z,1012.83
2022-11-06T01:41:49.014Z,1012.83
2022-11-06T01:42:48.986Z,1012.84
2022-11-06T01:43:48.992Z,1012.79
2022-11-06T01:44:49.009Z,1012.79
2022-11-06T01:45:48.959Z,1012.81
2022-11-06T01:46:48.957Z,1012.77
2022-11-06T01:47:49.029Z,1012.81
2022-11-06T01:48:48.918Z,1012.79
2022-11-06T01:49:48.948Z,1012.80
2022-11-06T01:50:48.906Z,1012.81
2022-11-06T01:51:48.909Z,1012.80
2022-11-06T01:52:48.884Z,1012.80
2022-11-06T01:53:48.894Z,1012.76
2022-11-06T01:54:48.920Z,1012.73
2022-11-06T01:55:48.881Z,1012.74
2022-11-06T01:56:48.852Z,1012.78
2022-11-06T01:57:48.849Z,1012.76
2022-11-06T01:58:48.831Z,1012.75
2022-11-06T01:59:48.859Z,1012.81
2022-11-06T02:00:48.805Z,1012.80
2022-11-06T02:01:48.904Z,1012.81
2022-11-06T02:02:48.930Z,1012.78
2022-11-06T02:03:48.768Z,1012.82
2022-11-06T02:04:48.807Z,1012.81
2022-11-06T02:05:48.746Z,1012.82
2022-11-06T02:06:48.745Z,1012.82
2022-11-06T02:07:48.716Z,1012.78
2022-11-06T02:08:48.708Z,1012.83
2022-11-06T02:09:48.705Z,1012.80
2022-11-06T02:10:48.717Z,1012.80
2022-11-06T02:11:48.679Z,1012.79
2022-11-06T02:12:48.667Z,1012.77
2022-11-06T02:13:48.685Z,1012.77
2022-11-06T02:14:48.641Z,1012.78
2022-11-06T02:15:48.667Z,1012.73
2022-11-06T02:16:48.634Z,1012.75
2022-11-06T02:17:48.647Z,1012.77
2022-11-06T02:18:48.622Z,1012.75
2022-11-06T02:19:48.617Z,1012.70
2022-11-06T02:20:48.638Z,1012.73
2022-11-06T02:21:48.564Z,1012.68
2022-11-06T02:22:48.568Z,1012.70
2022-11-06T02:23:48.560Z,1012.70
2022-11-06T02:24:48.550Z,1012.66
2022-11-06T02:25:48.569Z,1012.70
2022-11-06T02:26:48.530Z,1012.70
2022-11-06T02:27:48.513Z,1012.68
2022-11-06T02:28:48.507Z,1012.72
2022-11-06T02:29:48.497Z,1012.71
2022-11-06T02:30:48.512Z,1012.67
2022-11-06T02:31:48.470Z,1012.69
2022-11-06T02:32:48.447Z,1012.67
2022-11-06T02:33:48.455Z,1012.73
2022-11-06T02:34:48.424Z,1012.68
2022-11-06T02:35:48.450Z,1012.68
2022-11-06T02:36:48.417Z,1012.67
2022-11-06T02:37:48.406Z,1012.64
2022-11-06T02:38:48.379Z,1012.65
2022-11-06T02:39:48.392Z,1012.65
2022-11-06T02:40:48.436Z,1012.63
2022-11-06T02:41:48.350Z,1012.64
2022-11-06T02:42:48.352Z,1012.65
2022-11-06T02:43:48.332Z,1012.59
2022-11-06T02:44:48.342Z,1012.60
2022-11-06T02:45:48.326Z,1012.57
2022-11-06T02:46:48.288Z,1012.57
2022-11-06T02:47:48.285Z,1012.54
2022-11-06T02:48:48.264Z,1012.56
2022-11-06T02:49:48.263Z,1012.51
2022-11-06T02:50:48.314Z,1012.53
2022-11-06T02:51:48.251Z,1012.56
2022-11-06T02:52:48.223Z,1012.53
2022-11-06T02:53:48.223Z,1012.48
2022-11-06T02:54:48.203Z,1012.49
2022-11-06T02:55:48.238Z,1012.50
2022-11-06T02:56:48.191Z,1012.48
2022-11-06T02:57:48.201Z,1012.46
2022-11-06T02:58:49.287Z,1012.52
2022-11-06T02:59:48.165Z,1012.50
2022-11-06T03:00:48.163Z,1012.49
2022-11-06T03:01:48.260Z,1012.45
2022-11-06T03:02:48.260Z,1012.43
2022-11-06T03:03:48.109Z,1012.40
2022-11-06T03:04:48.107Z,1012.45
2022-11-06T03:05:48.133Z,1012.48
2022-11-06T03:06:48.086Z,1012.46
2022-11-06T03:07:48.063Z,1012.50
2022-11-06T03:08:48.067Z,1012.54
2022-11-06T03:09:48.051Z,1012.53
2022-11-06T03:10:48.076Z,1012.53
2022-11-06T03:11:48.024Z,1012.54
2022-11-06T03:12:48.002Z,1012.53
2022-11-06T03:13:48.027Z,1012.53
2022-11-06T03:14:47.991Z,1012.52
2022-11-06T03:15:48.008Z,1012.54
2022-11-06T03:16:47.963Z,1012.49
2022-11-06T03:17:47.975Z,1012.53
2022-11-06T03:18:47.954Z,1012.53
2022-11-06T03:19:47.932Z,1012.55
2022-11-06T03:20:47.941Z,1012.57
2022-11-06T03:21:47.904Z,1012.52
2022-11-06T03:22:47.912Z,1012.56
2022-11-06T03:23:47.878Z,1012.59
2022-11-06T03:24:47.861Z,1012.57
2022-11-06T03:25:47.894Z,1012.53
2022-11-06T03:26:47.871Z,1012.55
2022-11-06T03:27:47.836Z,1012.49
2022-11-06T03:28:47.825Z,1012.51
2022-11-06T03:29:47.834Z,1012.48
2022-11-06T03:30:47.842Z,1012.46
2022-11-06T03:31:47.809Z,1012.46
2022-11-06T03:32:47.788Z,1012.50
2022-11-06T03:33:47.791Z,1012.49
2022-11-06T03:34:47.775Z,1012.48
2022-11-06T03:35:47.795Z,1012.45
2022-11-06T03:36:47.743Z,1012.43
2022-11-06T03:37:47.730Z,1012.47
2022-11-06T03:38:47.729Z,1012.48
2022-11-06T03:39:47.712Z,1012.45
2022-11-06T03:40:47.725Z,1012.45
2022-11-06T03:41:47.688Z,1012.46
2022-11-06T03:42:47.677Z,1012.47
2022-11-06T03:43:47.680Z,1012.47
2022-11-06T03:44:47.646Z,1012.48
2022-11-06T03:45:47.679Z,1012.48
2022-11-06T03:46:47.629Z,1012.53
2022-11-06T03:47:47.629Z,1012.51
2022-11-06T03:48:47.609Z,1012.51
2022-11-06T03:49:47.609Z,1012.54
2022-11-06T03:50:47.632Z,1012.45
2022-11-06T03:51:47.565Z,1012.45
2022-11-06T03:52:47.577Z,1012.51
2022-11-06T03:53:47.554Z,1012.50
2022-11-06T03:54:47.532Z,1012.45
2022-11-06T03:55:47.572Z,1012.50
2022-11-06T03:56:47.520Z,1012.50
2022-11-06T03:57:47.514Z,1012.48
2022-11-06T03:58:47.622Z,1012.42
2022-11-06T03:59:47.484Z,1012.43
2022-11-06T04:00:47.517Z,1012.47
2022-11-06T04:01:47.628Z,1012.46
2022-11-06T04:02:47.641Z,1012.46
2022-11-06T04:03:47.440Z,1012.47
2022-11-06T04:04:47.408Z,1012.46
2022-11-06T04:05:47.411Z,1012.47
2022-11-06T04:06:47.448Z,1012.46
2022-11-06T04:07:47.392Z,1012.50
2022-11-06T04:08:47.387Z,1012.46
2022-11-06T04:09:47.366Z,1012.48
2022-11-06T04:10:47.370Z,1012.43
2022-11-06T04:11:47.394Z,1012.48
2022-11-06T04:12:47.358Z,1012.42
2022-11-06T04:13:47.341Z,1012.47
2022-11-06T04:14:47.325Z,1012.46
2022-11-06T04:15:47.313Z,1012.43
2022-11-06T04:16:47.327Z,1012.42
2022-11-06T04:17:47.293Z,1012.43
2022-11-06T04:18:47.259Z,1012.43
2022-11-06T04:19:47.268Z,1012.44
2022-11-06T04:20:47.245Z,1012.41
2022-11-06T04:21:47.275Z,1012.43
2022-11-06T04:22:47.227Z,1012.44
2022-11-06T04:23:47.230Z,1012.39
2022-11-06T04:24:47.198Z,1012.40
2022-11-06T04:25:47.191Z,1012.38
2022-11-06T04:26:47.200Z,1012.36
2022-11-06T04:27:47.165Z,1012.32
2022-11-06T04:28:47.158Z,1012.34
2022-11-06T04:29:47.145Z,1012.38
2022-11-06T04:30:47.139Z,1012.34
2022-11-06T04:31:47.178Z,1012.36
2022-11-06T04:32:47.128Z,1012.36
2022-11-06T04:33:47.110Z,1012.35
2022-11-06T04:34:47.092Z,1012.37
2022-11-06T04:35:47.092Z,1012.36
2022-11-06T04:36:47.115Z,1012.33
2022-11-06T04:37:47.071Z,1012.32
2022-11-06T04:38:47.057Z,1012.35
2022-11-06T04:39:47.044Z,1012.34
2022-11-06T04:40:47.008Z,1012.34
2022-11-06T04:41:47.030Z,1012.32
2022-11-06T04:42:46.988Z,1012.32
2022-11-06T04:43:46.979Z,1012.36
2022-11-06T04:44:46.993Z,1012.32
2022-11-06T04:45:46.970Z,1012.28
2022-11-06T04:46:46.996Z,1012.25
2022-11-06T04:47:46.944Z,1012.30
2022-11-06T04:48:46.953Z,1012.29
2022-11-06T04:49:46.923Z,1012.30
2022-11-06T04:50:46.917Z,1012.31
2022-11-06T04:51:46.941Z,1012.28
2022-11-06T04:52:46.899Z,1012.27
2022-11-06T04:53:46.884Z,1012.27
2022-11-06T04:54:46.877Z,1012.22
2022-11-06T04:55:46.862Z,1012.19
2022-11-06T04:56:46.887Z,1012.19
2022-11-06T04:57:46.869Z,1012.14
2022-11-06T04:58:46.860Z,1012.06
2022-11-06T04:59:46.818Z,1012.18
2022-11-06T05:00:46.966Z,1012.16
2022-11-06T05:01:46.955Z,1012.13
2022-11-06T05:02:46.823Z,1012.13
2022-11-06T05:03:46.766Z,1012.10
2022-11-06T05:04:46.775Z,1012.08
2022-11-06T05:05:46.749Z,1012.10
2022-11-06T05:06:46.738Z,1012.04
2022-11-06T05:07:46.759Z,1012.04
2022-11-06T05:08:46.711Z,1012.08
2022-11-06T05:09:46.708Z,1012.09
2022-11-06T05:10:46.700Z,1012.05
2022-11-06T05:11:46.689Z,1012.11
2022-11-06T05:12:46.710Z,1012.09
2022-11-06T05:13:46.669Z,1012.04
2022-11-06T05:14:46.650Z,1012.06
2022-11-06T05:15:46.627Z,1012.03
2022-11-06T05:16:46.631Z,1012.06
2022-11-06T05:17:46.637Z,1012.09
2022-11-06T05:18:46.611Z,1012.04
2022-11-06T05:19:46.572Z,1012.01
2022-11-06T05:20:46.565Z,1012.05
2022-11-06T05:21:46.585Z,1012.05
2022-11-06T05:22:46.576Z,1012.05
2022-11-06T05:23:46.544Z,1012.04
2022-11-06T05:24:46.530Z,1012.02
2022-11-06T05:25:46.532Z,1012.04
2022-11-06T05:26:46.560Z,1012.03
2022-11-06T05:27:46.504Z,1012.03
2022-11-06T05:28:46.497Z,1012.02
2022-11-06T05:29:46.491Z,1012.05
2022-11-06T05:30:46.489Z,1012.06
2022-11-06T05:31:46.469Z,1012.03
2022-11-06T05:32:46.491Z,1012.03
2022-11-06T05:33:46.429Z,1012.03
2022-11-06T05:34:46.430Z,1012.02
2022-11-06T05:35:46.402Z,1012.02
2022-11-06T05:36:46.410Z,1011.98
2022-11-06T05:37:46.430Z,1012.02
2022-11-06T05:38:46.401Z,1011.97
2022-11-06T05:39:46.370Z,1011.95
2022-11-06T05:40:46.354Z,1011.96
2022-11-06T05:41:46.349Z,1011.95
2022-11-06T05:42:46.375Z,1011.93
2022-11-06T05:43:46.325Z,1011.94
2022-11-06T05:44:46.338Z,1011.95
2022-11-06T05:45:46.309Z,1011.93
2022-11-06T05:46:49.260Z,1011.96
2022-11-06T05:47:46.309Z,1011.96
2022-11-06T05:48:46.282Z,1011.93
2022-11-06T05:49:46.251Z,1011.91
2022-11-06T05:50:46.265Z,1011.96
2022-11-06T05:51:46.229Z,1011.96
2022-11-06T05:52:46.243Z,1011.92
2022-11-06T05:53:46.207Z,1011.94
2022-11-06T05:54:46.218Z,1011.95
2022-11-06T05:55:46.181Z,1011.93
2022-11-06T05:56:46.191Z,1011.97
2022-11-06T05:57:46.187Z,1011.97
2022-11-06T05:58:46.146Z,1011.96
2022-11-06T05:59:46.139Z,1011.95
2022-11-06T06:00:46.132Z,1011.95
2022-11-06T06:01:46.263Z,1011.94
2022-11-06T06:02:46.262Z,1011.93
2022-11-06T06:03:46.104Z,1011.96
2022-11-06T06:04:46.088Z,1011.98
2022-11-06T06:05:46.061Z,1011.96
2022-11-06T06:06:46.078Z,1012.02
2022-11-06T06:07:46.092Z,1011.95
2022-11-06T06:08:46.055Z,1011.94
2022-11-06T06:09:46.013Z,1011.98
2022-11-06T06:10:46.031Z,1012.02
2022-11-06T06:11:46.011Z,1011.96
2022-11-06T06:12:46.020Z,1011.98
2022-11-06T06:13:46.023Z,1012.01
2022-11-06T06:14:50.228Z,1012.00
2022-11-06T06:15:45.967Z,1012.05
2022-11-06T06:16:45.950Z,1012.04
2022-11-06T06:17:45.949Z,1012.02
2022-11-06T06:18:45.973Z,1011.98
2022-11-06T06:19:45.925Z,1012.01
2022-11-06T06:20:45.915Z,1012.02
2022-11-06T06:21:45.934Z,1012.09
2022-11-06T06:22:45.889Z,1012.08
2022-11-06T06:23:45.910Z,1012.09
2022-11-06T06:24:45.909Z,1012.03
2022-11-06T06:25:45.847Z,1012.03
2022-11-06T06:26:45.850Z,1012.06
2022-11-06T06:27:45.825Z,1012.04
2022-11-06T06:28:45.841Z,1012.10
2022-11-06T06:29:45.808Z,1012.02
2022-11-06T06:30:45.816Z,1012.06
2022-11-06T06:31:45.813Z,1012.07
2022-11-06T06:32:45.773Z,1012.11
2022-11-06T06:33:45.786Z,1012.06
2022-11-06T06:34:45.755Z,1012.09
2022-11-06T06:35:45.734Z,1012.10
2022-11-06T06:36:45.721Z,1012.14
2022-11-06T06:37:45.705Z,1012.12
2022-11-06T06:38:45.737Z,1012.16
2022-11-06T06:39:45.704Z,1012.15
2022-11-06T06:40:45.696Z,1012.16
2022-11-06T06:41:45.663Z,1012.17
2022-11-06T06:42:45.674Z,1012.16
2022-11-06T06:43:45.679Z,1012.21
2022-11-06T06:44:45.653Z,1012.22
2022-11-06T06:45:45.618Z,1012.24
2022-11-06T06:46:45.641Z,1012.26
2022-11-06T06:47:45.602Z,1012.27
2022-11-06T06:48:45.641Z,1012.27
2022-11-06T06:49:45.593Z,1012.32
2022-11-06T06:50:45.572Z,1012.32
2022-11-06T06:51:45.549Z,1012.37
2022-11-06T06:52:45.565Z,1012.38
2022-11-06T06:53:45.571Z,1012.39
2022-11-06T06:54:45.532Z,1012.40
2022-11-06T06:55:45.512Z,1012.36
2022-11-06T06:56:45.517Z,1012.37
2022-11-06T06:57:45.486Z,1012.36
2022-11-06T06:58:45.517Z,1012.41
2022-11-06T06:59:45.475Z,1012.41
2022-11-06T07:00:45.530Z,1012.46
2022-11-06T07:01:45.556Z,1012.41
2022-11-06T07:02:45.430Z,1012.47
2022-11-06T07:03:45.449Z,1012.47
2022-11-06T07:04:45.417Z,1012.44
2022-11-06T07:05:45.409Z,1012.48
2022-11-06T07:06:45.398Z,1012.45
2022-11-06T07:07:45.378Z,1012.37
2022-11-06T07:08:45.394Z,1012.45
2022-11-06T07:09:45.345Z,1012.39
2022-11-06T07:10:45.365Z,1012.44
2022-11-06T07:11:45.325Z,1012.45
2022-11-06T07:12:45.333Z,1012.44
2022-11-06T07:13:46.335Z,1012.45
2022-11-06T07:14:45.300Z,1012.44
2022-11-06T07:15:45.288Z,1012.44
2022-11-06T07:16:49.695Z,1012.39
2022-11-06T07:17:46.279Z,1012.46
2022-11-06T07:18:45.377Z,1012.40
2022-11-06T07:19:45.242Z,1012.43
2022-11-06T07:20:45.248Z,1012.37
2022-11-06T07:21:45.281Z,1012.41
2022-11-06T07:22:45.248Z,1012.38
2022-11-06T07:23:45.211Z,1012.37
2022-11-06T07:24:45.322Z,1012.34
2022-11-06T07:25:45.164Z,1012.36
2022-11-06T07:26:45.174Z,1012.37
2022-11-06T07:27:45.143Z,1012.35
2022-11-06T07:28:45.177Z,1012.35
2022-11-06T07:29:45.766Z,1012.38
2022-11-06T07:30:45.327Z,1012.34
2022-11-06T07:31:45.113Z,1012.38
2022-11-06T07:32:45.106Z,1012.28
2022-11-06T07:33:45.168Z,1012.28
2022-11-06T07:34:45.131Z,1012.31
2022-11-06T07:35:45.056Z,1012.31
2022-11-06T07:36:45.069Z,1012.30
2022-11-06T07:37:45.031Z,1012.34
2022-11-06T07:38:45.039Z,1012.28
2022-11-06T07:39:45.024Z,1012.33
2022-11-06T07:40:45.016Z,1012.26
2022-11-06T07:41:44.972Z,1012.28
2022-11-06T07:42:45.015Z,1012.27
2022-11-06T07:43:44.948Z,1012.28
2022-11-06T07:44:44.977Z,1012.30
2022-11-06T07:45:44.951Z,1012.32
2022-11-06T07:46:44.918Z,1012.35
2022-11-06T07:47:44.929Z,1012.34
2022-11-06T07:48:44.911Z,1012.36
2022-11-06T07:49:50.576Z,1012.36
2022-11-06T07:50:45.889Z,1012.32
2022-11-06T07:51:44.892Z,1012.31
2022-11-06T07:52:44.877Z,1012.35
2022-11-06T07:53:44.866Z,1012.30
2022-11-06T07:54:44.873Z,1012.31
2022-11-06T07:55:44.831Z,1012.29
2022-11-06T07:56:44.830Z,1012.28
2022-11-06T07:57:44.805Z,1012.30
2022-11-06T07:58:44.811Z,1012.23
2022-11-06T07:59:44.808Z,1012.23
2022-11-06T08:00:44.830Z,1012.21
2022-11-06T08:01:44.872Z,1012.20
2022-11-06T08:02:44.777Z,1012.21
2022-11-06T08:03:44.755Z,1012.21
2022-11-06T08:04:44.806Z,1012.21
2022-11-06T08:05:44.731Z,1012.21
2022-11-06T08:06:44.701Z,1012.24
2022-11-06T08:07:44.707Z,1012.21
2022-11-06T08:08:44.685Z,1012.25
2022-11-06T08:09:44.719Z,1012.23
2022-11-06T08:10:44.676Z,1012.24
2022-11-06T08:11:44.655Z,1012.22
2022-11-06T08:12:44.653Z,1012.22
2022-11-06T08:13:44.633Z,1012.17
2022-11-06T08:14:44.648Z,1012.18
2022-11-06T08:15:44.611Z,1012.16
2022-11-06T08:16:44.598Z,1012.15
2022-11-06T08:17:44.591Z,1012.16
2022-11-06T08:18:44.570Z,1012.13
2022-11-06T08:19:44.596Z,1012.19
2022-11-06T08:20:44.561Z,1012.18
2022-11-06T08:21:44.544Z,1012.16
2022-11-06T08:22:44.525Z,1012.20
2022-11-06T08:23:44.506Z,1012.19
2022-11-06T08:24:44.530Z,1012.18
2022-11-06T08:25:44.488Z,1012.12
2022-11-06T08:26:44.494Z,1012.14
2022-11-06T08:27:44.467Z,1012.15
2022-11-06T08:28:44.473Z,1012.12
2022-11-06T08:29:44.491Z,1012.08
2022-11-06T08:30:44.461Z,1012.11
2022-11-06T08:31:44.429Z,1012.13
2022-11-06T08:32:44.417Z,1012.05
2022-11-06T08:33:44.412Z,1012.09
2022-11-06T08:34:44.436Z,1012.05
2022-11-06T08:35:44.384Z,1012.05
2022-11-06T08:36:49.123Z,1012.03
2022-11-06T08:37:45.372Z,1012.00
2022-11-06T08:38:44.347Z,1011.92
2022-11-06T08:39:44.379Z,1011.95
2022-11-06T08:40:48.151Z,1011.98
2022-11-06T08:41:45.315Z,1011.89
2022-11-06T08:42:44.337Z,1011.89
2022-11-06T08:43:44.289Z,1011.94
2022-11-06T08:44:44.316Z,1011.88
2022-11-06T08:45:44.268Z,1011.94
2022-11-06T08:46:47.854Z,1011.90
2022-11-06T08:47:45.255Z,1011.90
2022-11-06T08:48:44.230Z,1011.87
2022-11-06T08:49:44.316Z,1011.92
2022-11-06T08:50:44.209Z,1011.88
2022-11-06T08:51:44.211Z,1011.90
2022-11-06T08:52:44.192Z,1011.86
2022-11-06T08:53:44.237Z,1011.92
2022-11-06T08:54:44.210Z,1011.90
2022-11-06T08:55:44.156Z,1011.85
2022-11-06T08:56:44.154Z,1011.86
2022-11-06T08:57:44.133Z,1011.95
2022-11-06T08:58:44.132Z,1011.89
2022-11-06T08:59:44.152Z,1011.90
2022-11-06T09:00:44.170Z,1011.88
2022-11-06T09:01:44.151Z,1011.85
2022-11-06T09:02:44.057Z,1011.81
2022-11-06T09:03:44.060Z,1011.86
2022-11-06T09:04:44.085Z,1011.85
2022-11-06T09:05:44.057Z,1011.82
2022-11-06T09:06:44.024Z,1011.80
2022-11-06T09:07:44.029Z,1011.75
2022-11-06T09:08:44.011Z,1011.72
2022-11-06T09:09:44.037Z,1011.72
2022-11-06T09:10:43.989Z,1011.75
2022-11-06T09:11:43.964Z,1011.72
2022-11-06T09:12:43.959Z,1011.67
2022-11-06T09:13:43.958Z,1011.63
2022-11-06T09:14:43.970Z,1011.67
2022-11-06T09:15:43.931Z,1011.66
2022-11-06T09:16:43.915Z,1011.60
2022-11-06T09:17:43.914Z,1011.66
2022-11-06T09:18:43.885Z,1011.67
2022-11-06T09:19:43.917Z,1011.69
2022-11-06T09:20:43.906Z,1011.73
2022-11-06T09:21:43.873Z,1011.73
2022-11-06T09:22:43.855Z,1011.74
2022-11-06T09:23:43.853Z,1011.72
2022-11-06T09:25:02.492Z,1011.70
2022-11-06T09:25:44.832Z,1011.72
2022-11-06T09:26:43.828Z,1011.79
2022-11-06T09:27:43.840Z,1011.71
2022-11-06T09:28:43.795Z,1011.68
2022-11-06T09:29:43.809Z,1011.72
2022-11-06T09:30:43.768Z,1011.64
2022-11-06T09:31:43.760Z,1011.62
2022-11-06T09:32:43.754Z,1011.66
2022-11-06T09:33:43.753Z,1011.67
2022-11-06T09:34:43.716Z,1011.63
2022-11-06T09:35:43.733Z,1011.55
2022-11-06T09:36:43.682Z,1011.59
2022-11-06T09:37:43.668Z,1011.58
2022-11-06T09:38:43.663Z,1011.64
2022-11-06T09:39:43.648Z,1011.62
2022-11-06T09:40:43.679Z,1011.63
2022-11-06T09:41:43.630Z,1011.61
2022-11-06T09:42:43.626Z,1011.61
2022-11-06T09:44:04.088Z,1011.56
2022-11-06T09:44:44.609Z,1011.60
2022-11-06T09:45:43.645Z,1011.57
2022-11-06T09:46:43.572Z,1011.51
2022-11-06T09:47:43.572Z,1011.56
2022-11-06T09:48:43.560Z,1011.54
2022-11-06T09:49:43.644Z,1011.53
2022-11-06T09:50:43.569Z,1011.57
2022-11-06T09:51:43.519Z,1011.52
2022-11-06T09:52:43.522Z,1011.55
2022-11-06T09:53:43.539Z,1011.50
2022-11-06T09:54:43.480Z,1011.47
2022-11-06T09:55:43.510Z,1011.48
2022-11-06T09:56:43.464Z,1011.47
2022-11-06T09:57:43.472Z,1011.47
2022-11-06T09:58:43.444Z,1011.46
2022-11-06T09:59:43.439Z,1011.44
2022-11-06T10:00:43.573Z,1011.47
2022-11-06T10:01:43.504Z,1011.43
2022-11-06T10:02:43.520Z,1011.45
2022-11-06T10:03:43.449Z,1011.44
2022-11-06T10:04:43.386Z,1011.44
2022-11-06T10:05:43.415Z,1011.44
2022-11-06T10:06:43.339Z,1011.41
2022-11-06T10:07:43.346Z,1011.38
2022-11-06T10:08:43.328Z,1011.41
2022-11-06T10:09:43.334Z,1011.40
2022-11-06T10:10:43.338Z,1011.36
2022-11-06T10:11:43.320Z,1011.42
2022-11-06T10:12:43.304Z,1011.42
2022-11-06T10:13:43.294Z,1011.38
2022-11-06T10:14:43.270Z,1011.33
2022-11-06T10:15:43.275Z,1011.34
2022-11-06T10:16:43.233Z,1011.32
2022-11-06T10:17:43.220Z,1011.30
2022-11-06T10:18:43.219Z,1011.26
2022-11-06T10:19:43.206Z,1011.27
2022-11-06T10:20:43.227Z,1011.23
2022-11-06T10:21:43.187Z,1011.21
2022-11-06T10:22:43.195Z,1011.17
2022-11-06T10:23:43.204Z,1011.19
2022-11-06T10:24:43.146Z,1011.23
2022-11-06T10:25:43.183Z,1011.25
2022-11-06T10:26:43.128Z,1011.23
2022-11-06T10:27:43.133Z,1011.24
2022-11-06T10:28:43.096Z,1011.21
2022-11-06T10:29:43.133Z,1011.23
2022-11-06T10:30:43.132Z,1011.16
2022-11-06T10:31:43.086Z,1011.26
2022-11-06T10:32:43.122Z,1011.20
2022-11-06T10:33:43.048Z,1011.11
2022-11-06T10:34:43.049Z,1011.10
2022-11-06T10:35:43.023Z,1011.04
2022-11-06T10:36:47.315Z,1011.09
2022-11-06T10:37:44.033Z,1011.04
2022-11-06T10:38:43.005Z,1010.96
2022-11-06T10:39:42.982Z,1011.01
2022-11-06T10:40:42.962Z,1010.99
2022-11-06T10:41:42.986Z,1010.98
2022-11-06T10:42:42.957Z,1010.96
2022-11-06T10:43:42.948Z,1010.99
2022-11-06T10:44:42.920Z,1011.00
2022-11-06T10:45:42.930Z,1010.92
2022-11-06T10:46:42.926Z,1010.89
2022-11-06T10:47:42.900Z,1010.85
2022-11-06T10:48:42.895Z,1010.84
2022-11-06T10:49:42.892Z,1010.79
2022-11-06T10:50:42.868Z,1010.86
2022-11-06T10:51:42.864Z,1010.86
2022-11-06T10:52:42.851Z,1010.81
2022-11-06T10:53:42.812Z,1010.81
2022-11-06T10:54:42.799Z,1010.81
2022-11-06T10:55:42.783Z,1010.78
2022-11-06T10:56:42.824Z,1010.75
2022-11-06T10:57:42.767Z,1010.63
2022-11-06T10:58:42.778Z,1010.71
2022-11-06T10:59:42.743Z,1010.71
2022-11-06T11:00:42.792Z,1010.70
2022-11-06T11:01:42.880Z,1010.63
2022-11-06T11:02:42.766Z,1010.68
2022-11-06T11:03:42.707Z,1010.69
2022-11-06T11:04:42.705Z,1010.61
2022-11-06T11:05:42.703Z,1010.59
2022-11-06T11:06:42.707Z,1010.59
2022-11-06T11:07:42.669Z,1010.61
2022-11-06T11:08:42.647Z,1010.60
2022-11-06T11:09:42.658Z,1010.61
2022-11-06T11:10:42.637Z,1010.61
2022-11-06T11:11:42.647Z,1010.56
2022-11-06T11:12:42.627Z,1010.51
2022-11-06T11:13:42.616Z,1010.55
2022-11-06T11:14:42.589Z,1010.56
2022-11-06T11:15:42.577Z,1010.58
2022-11-06T11:16:42.596Z,1010.53
2022-11-06T11:17:42.554Z,1010.56
2022-11-06T11:18:42.541Z,1010.51
2022-11-06T11:19:42.529Z,1010.50
2022-11-06T11:20:42.498Z,1010.40
2022-11-06T11:21:42.518Z,1010.41
2022-11-06T11:22:42.527Z,1010.38
2022-11-06T11:23:42.485Z,1010.37
2022-11-06T11:24:42.468Z,1010.39
2022-11-06T11:25:42.469Z,1010.32
2022-11-06T11:26:42.478Z,1010.29
2022-11-06T11:27:42.437Z,1010.31
2022-11-06T11:28:42.420Z,1010.26
2022-11-06T11:29:42.395Z,1010.22
2022-11-06T11:30:42.415Z,1010.14
2022-11-06T11:31:42.414Z,1010.21
2022-11-06T11:32:42.403Z,1010.14
2022-11-06T11:33:42.360Z,1010.11
2022-11-06T11:34:47.646Z,1010.13
2022-11-06T11:35:43.356Z,1010.09
2022-11-06T11:36:42.370Z,1010.11
2022-11-06T11:37:42.336Z,1010.10
2022-11-06T11:38:42.311Z,1010.07
2022-11-06T11:39:42.321Z,1010.05
2022-11-06T11:40:42.284Z,1010.08
2022-11-06T11:41:42.292Z,1010.03
2022-11-06T11:42:42.302Z,1010.05
2022-11-06T11:43:42.266Z,1009.97
2022-11-06T11:44:42.253Z,1009.97
2022-11-06T11:45:42.235Z,1009.98
2022-11-06T11:46:42.219Z,1009.99
2022-11-06T11:47:42.298Z,1009.96
2022-11-06T11:48:42.213Z,1009.93
2022-11-06T11:49:42.194Z,1009.95
2022-11-06T11:50:42.176Z,1009.93
2022-11-06T11:51:42.165Z,1009.92
2022-11-06T11:52:42.869Z,1009.93
2022-11-06T11:53:42.152Z,1009.92
2022-11-06T11:54:42.122Z,1009.90
2022-11-06T11:55:42.135Z,1009.87
2022-11-06T11:57:03.668Z,1009.85
2022-11-06T11:57:43.157Z,1009.85
2022-11-06T11:58:42.090Z,1009.83
2022-11-06T11:59:42.078Z,1009.80
2022-11-06T12:00:42.074Z,1009.81
2022-11-06T12:01:42.111Z,1009.82
2022-11-06T12:02:42.085Z,1009.83
2022-11-06T12:03:42.018Z,1009.76
2022-11-06T12:04:42.047Z,1009.80
2022-11-06T12:05:42.016Z,1009.81
2022-11-06T12:06:42.016Z,1009.88